createdAt,value
2019-03-28T00:02:22.518Z,9.70
2019-03-28T00:04:53.869Z,11.27
2019-03-28T00:07:24.674Z,11.00
2019-03-28T00:09:56.255Z,11.20
2019-03-28T00:12:27.234Z,10.83
2019-03-28T00:14:58.031Z,11.77
2019-03-28T00:17:28.721Z,11.20
2019-03-28T00:19:59.441Z,11.47
2019-03-28T00:22:37.981Z,10.70
2019-03-28T00:25:10.487Z,11.23
2019-03-28T00:27:41.369Z,11.40
2019-03-28T00:30:11.786Z,11.67
2019-03-28T00:32:41.686Z,12.63
2019-03-28T00:35:12.910Z,11.80
2019-03-28T00:37:44.449Z,10.80
2019-03-28T00:40:16.368Z,11.27
2019-03-28T00:42:47.349Z,11.57
2019-03-28T00:45:17.777Z,12.50
2019-03-28T00:47:47.963Z,11.47
2019-03-28T00:50:21.969Z,11.97
2019-03-28T00:52:52.969Z,12.10
2019-03-28T00:55:24.082Z,11.17
2019-03-28T00:57:54.833Z,11.47
2019-03-28T01:00:24.709Z,11.50
2019-03-28T01:02:54.489Z,12.00
2019-03-28T01:05:25.229Z,11.77
2019-03-28T01:07:55.305Z,12.60
2019-03-28T01:10:26.447Z,11.43
2019-03-28T01:12:56.721Z,11.03
2019-03-28T01:15:27.990Z,11.83
2019-03-28T01:18:00.801Z,11.70
2019-03-28T01:20:32.001Z,12.50
2019-03-28T01:23:04.951Z,12.13
2019-03-28T01:25:36.993Z,12.93
2019-03-28T01:28:10.886Z,12.13
2019-03-28T01:30:44.221Z,12.83
2019-03-28T01:33:15.242Z,13.47
2019-03-28T01:35:46.045Z,10.80
2019-03-28T01:38:17.098Z,12.37
2019-03-28T01:40:48.304Z,12.50
2019-03-28T01:43:19.178Z,12.73
2019-03-28T01:45:51.075Z,14.30
2019-03-28T01:48:21.945Z,12.40
2019-03-28T01:50:51.622Z,12.73
2019-03-28T01:53:21.386Z,13.03
2019-03-28T01:55:52.104Z,13.03
2019-03-28T01:58:21.905Z,12.93
2019-03-28T02:00:52.943Z,12.00
2019-03-28T02:03:23.778Z,13.87
2019-03-28T02:05:54.465Z,12.80
2019-03-28T02:08:26.875Z,12.73
2019-03-28T02:10:57.713Z,13.73
2019-03-28T02:13:27.977Z,13.43
2019-03-28T02:15:58.837Z,12.80
2019-03-28T02:18:30.297Z,13.03
2019-03-28T02:21:00.339Z,12.70
2019-03-28T02:23:30.347Z,13.27
2019-03-28T02:26:00.993Z,12.90
2019-03-28T02:28:31.030Z,14.30
2019-03-28T02:31:02.178Z,12.60
2019-03-28T02:33:34.357Z,11.77
2019-03-28T02:36:05.642Z,11.37
2019-03-28T02:38:36.758Z,10.73
2019-03-28T02:41:07.103Z,10.70
2019-03-28T02:43:38.594Z,10.10
2019-03-28T02:46:10.461Z,11.23
2019-03-28T02:48:41.934Z,10.40
2019-03-28T02:51:12.929Z,10.87
2019-03-28T02:53:44.858Z,10.90
2019-03-28T02:56:15.809Z,11.07
2019-03-28T02:58:49.062Z,11.60
2019-03-28T03:01:20.197Z,10.50
2019-03-28T03:03:51.033Z,11.83
2019-03-28T03:06:20.777Z,11.43
2019-03-28T03:08:50.854Z,10.80
2019-03-28T03:11:22.140Z,10.73
2019-03-28T03:13:53.261Z,9.70
2019-03-28T03:16:23.468Z,9.70
2019-03-28T03:18:54.629Z,9.97
2019-03-28T03:21:25.362Z,9.50
2019-03-28T03:23:57.779Z,9.60
2019-03-28T03:26:27.915Z,9.97
2019-03-28T03:29:00.015Z,9.37
2019-03-28T03:31:29.855Z,9.37
2019-03-28T03:33:59.911Z,9.10
2019-03-28T03:36:30.744Z,9.03
2019-03-28T03:39:01.850Z,8.67
2019-03-28T03:41:31.747Z,9.30
2019-03-28T03:44:01.498Z,9.27
2019-03-28T03:46:31.266Z,8.83
2019-03-28T03:49:02.606Z,9.60
2019-03-28T03:51:32.710Z,10.33
2019-03-28T03:54:02.941Z,9.60
2019-03-28T03:56:34.088Z,10.27
2019-03-28T03:59:05.944Z,10.10
2019-03-28T04:01:36.739Z,10.03
2019-03-28T04:04:07.122Z,10.07
2019-03-28T04:06:38.258Z,10.57
2019-03-28T04:09:09.618Z,10.60
2019-03-28T04:11:41.206Z,10.57
2019-03-28T04:14:15.493Z,10.13
2019-03-28T04:16:45.545Z,9.77
2019-03-28T04:19:16.259Z,11.10
2019-03-28T04:21:46.041Z,10.20
2019-03-28T04:24:16.110Z,10.60
2019-03-28T04:26:47.059Z,11.00
2019-03-28T04:29:18.076Z,10.40
2019-03-28T04:31:49.328Z,10.50
2019-03-28T04:34:20.593Z,11.40
2019-03-28T04:36:50.470Z,10.77
2019-03-28T04:39:22.265Z,10.90
2019-03-28T04:41:53.348Z,10.73
2019-03-28T04:44:23.242Z,10.77
2019-03-28T04:46:53.957Z,11.23
2019-03-28T04:49:23.818Z,11.87
2019-03-28T04:51:54.859Z,10.67
2019-03-28T04:54:26.025Z,11.57
2019-03-28T04:56:59.286Z,10.97
2019-03-28T04:59:30.457Z,11.30
2019-03-28T05:02:03.403Z,10.63
2019-03-28T05:04:33.175Z,11.40
2019-03-28T05:07:03.993Z,11.43
2019-03-28T05:09:35.006Z,11.70
2019-03-28T05:12:06.211Z,11.07
2019-03-28T05:14:37.021Z,10.80
2019-03-28T05:17:08.037Z,11.07
2019-03-28T05:19:39.245Z,12.23
2019-03-28T05:22:10.293Z,11.83
2019-03-28T05:24:40.378Z,10.73
2019-03-28T05:27:12.911Z,11.40
2019-03-28T05:29:42.964Z,10.60
2019-03-28T05:32:17.002Z,11.13
2019-03-28T05:34:49.089Z,10.97
2019-03-28T05:37:19.393Z,11.23
2019-03-28T05:39:50.235Z,11.87
2019-03-28T05:42:21.249Z,12.30
2019-03-28T05:44:51.981Z,11.70
2019-03-28T05:47:22.613Z,12.07
2019-03-28T05:49:55.319Z,11.83
2019-03-28T05:52:27.920Z,11.50
2019-03-28T05:54:57.705Z,10.73
2019-03-28T05:57:27.465Z,11.00
2019-03-28T05:59:58.177Z,11.53
2019-03-28T06:02:30.695Z,10.60
2019-03-28T06:05:01.498Z,11.30
2019-03-28T06:07:32.838Z,10.97
2019-03-28T06:10:04.065Z,10.83
2019-03-28T06:12:34.907Z,10.00
2019-03-28T06:15:07.818Z,11.27
2019-03-28T06:17:38.554Z,11.60
2019-03-28T06:20:09.353Z,11.73
2019-03-28T06:22:40.125Z,11.87
2019-03-28T06:25:13.754Z,12.43
2019-03-28T06:27:44.807Z,11.80
2019-03-28T06:30:15.792Z,11.67
2019-03-28T06:32:46.542Z,11.20
2019-03-28T06:35:18.277Z,10.93
2019-03-28T06:37:51.486Z,9.67
2019-03-28T06:40:23.038Z,10.90
2019-03-28T06:42:55.986Z,10.87
2019-03-28T06:45:27.925Z,9.10
2019-03-28T06:48:00.326Z,9.97
2019-03-28T06:50:32.085Z,9.70
2019-03-28T06:53:03.632Z,10.63
2019-03-28T06:55:36.859Z,10.60
2019-03-28T06:58:06.957Z,10.60
2019-03-28T07:00:37.017Z,10.47
2019-03-28T07:03:08.760Z,10.27
2019-03-28T07:05:39.573Z,10.97
2019-03-28T07:08:09.326Z,11.83
2019-03-28T07:10:40.161Z,11.93
2019-03-28T07:13:11.294Z,13.17
2019-03-28T07:15:41.577Z,11.70
2019-03-28T07:18:11.873Z,12.83
2019-03-28T07:20:43.106Z,12.13
2019-03-28T07:23:13.413Z,12.77
2019-03-28T07:25:43.632Z,12.77
2019-03-28T07:28:14.473Z,12.27
2019-03-28T07:30:45.705Z,12.37
2019-03-28T07:33:16.436Z,12.33
2019-03-28T07:35:46.593Z,12.70
2019-03-28T07:38:17.651Z,11.93
2019-03-28T07:40:48.780Z,12.63
2019-03-28T07:43:18.557Z,10.47
2019-03-28T07:45:48.441Z,12.53
2019-03-28T07:48:19.160Z,13.50
2019-03-28T07:50:51.247Z,13.53
2019-03-28T07:53:22.047Z,12.77
2019-03-28T07:55:52.037Z,13.50
2019-03-28T07:58:24.249Z,13.80
2019-03-28T08:00:55.037Z,13.07
2019-03-28T08:03:25.155Z,13.37
2019-03-28T08:05:56.360Z,14.27
2019-03-28T08:08:38.371Z,13.53
2019-03-28T08:10:58.946Z,13.70
2019-03-28T08:13:30.040Z,14.83
2019-03-28T08:16:00.255Z,15.00
2019-03-28T08:18:32.166Z,14.63
2019-03-28T08:21:02.802Z,15.57
2019-03-28T08:23:35.290Z,14.97
2019-03-28T08:26:05.388Z,15.13
2019-03-28T08:28:36.330Z,16.30
2019-03-28T08:31:08.822Z,15.37
2019-03-28T08:33:39.646Z,15.67
2019-03-28T08:36:09.408Z,14.60
2019-03-28T08:38:41.086Z,15.77
2019-03-28T08:41:10.949Z,17.50
2019-03-28T08:43:42.675Z,17.20
2019-03-28T08:46:13.925Z,18.07
2019-03-28T08:48:45.014Z,15.97
2019-03-28T08:51:16.634Z,18.50
2019-03-28T08:53:46.830Z,15.70
2019-03-28T08:56:20.274Z,18.13
2019-03-28T08:58:50.558Z,17.97
2019-03-28T09:01:21.640Z,19.20
2019-03-28T09:03:52.763Z,18.43
2019-03-28T09:06:24.706Z,20.23
2019-03-28T09:08:55.421Z,20.07
2019-03-28T09:11:25.510Z,20.63
2019-03-28T09:13:56.453Z,21.57
2019-03-28T09:16:26.238Z,20.37
2019-03-28T09:18:56.973Z,20.37
2019-03-28T09:21:27.693Z,20.63
2019-03-28T09:23:59.349Z,20.43
2019-03-28T09:26:29.983Z,19.27
2019-03-28T09:29:01.054Z,19.50
2019-03-28T09:31:31.170Z,21.13
2019-03-28T09:34:04.734Z,19.70
2019-03-28T09:36:35.756Z,20.27
2019-03-28T09:39:07.965Z,20.47
2019-03-28T09:41:39.069Z,20.40
2019-03-28T09:44:11.381Z,19.67
2019-03-28T09:46:42.373Z,20.77
2019-03-28T09:49:14.798Z,20.70
2019-03-28T09:51:44.438Z,20.20
2019-03-28T09:54:16.441Z,21.53
2019-03-28T09:56:47.341Z,20.27
2019-03-28T09:59:17.425Z,21.17
2019-03-28T10:01:48.490Z,21.20
2019-03-28T10:04:20.517Z,20.57
2019-03-28T10:06:50.437Z,20.93
2019-03-28T10:09:21.470Z,19.90
2019-03-28T10:11:52.394Z,19.17
2019-03-28T10:14:24.813Z,18.50
2019-03-28T10:16:59.389Z,17.77
2019-03-28T10:19:30.293Z,14.60
2019-03-28T10:22:01.301Z,14.13
2019-03-28T10:24:32.908Z,14.23
2019-03-28T10:27:03.990Z,14.53
2019-03-28T10:29:36.413Z,13.27
2019-03-28T10:32:06.553Z,12.30
2019-03-28T10:34:37.450Z,12.23
2019-03-28T10:37:07.610Z,11.57
2019-03-28T10:39:38.737Z,13.33
2019-03-28T10:42:09.907Z,14.67
2019-03-28T10:44:42.969Z,14.67
2019-03-28T10:47:14.062Z,14.47
2019-03-28T10:49:44.338Z,12.57
2019-03-28T10:52:14.745Z,12.17
2019-03-28T10:54:46.509Z,13.87
2019-03-28T10:57:29.495Z,13.33
2019-03-28T10:59:49.090Z,13.67
2019-03-28T11:02:21.418Z,10.43
2019-03-28T11:04:53.478Z,9.33
2019-03-28T11:07:24.622Z,11.70
2019-03-28T11:09:55.934Z,12.43
2019-03-28T11:12:28.783Z,12.20
2019-03-28T11:15:01.596Z,10.83
2019-03-28T11:17:32.325Z,11.33
2019-03-28T11:20:05.217Z,10.43
2019-03-28T11:22:35.492Z,10.50
2019-03-28T11:25:08.628Z,11.10
2019-03-28T11:27:39.657Z,11.27
2019-03-28T11:30:09.641Z,10.57
2019-03-28T11:32:40.354Z,11.87
2019-03-28T11:35:10.654Z,13.90
2019-03-28T11:37:41.774Z,13.97
2019-03-28T11:40:12.987Z,14.43
2019-03-28T11:42:44.253Z,14.33
2019-03-28T11:45:15.629Z,13.47
2019-03-28T11:47:45.410Z,13.60
2019-03-28T11:50:17.286Z,14.27
2019-03-28T11:52:49.277Z,13.37
2019-03-28T11:55:21.669Z,12.80
2019-03-28T11:57:51.527Z,13.20
2019-03-28T12:00:24.269Z,13.67
2019-03-28T12:02:54.418Z,13.50
2019-03-28T12:05:24.305Z,12.27
2019-03-28T12:07:55.314Z,11.87
2019-03-28T12:10:26.153Z,11.07
2019-03-28T12:12:58.929Z,12.10
2019-03-28T12:15:30.020Z,11.83
2019-03-28T12:18:01.545Z,11.60
2019-03-28T12:20:32.372Z,12.47
2019-03-28T12:23:03.091Z,12.60
2019-03-28T12:25:33.166Z,12.87
2019-03-28T12:28:02.997Z,12.50
2019-03-28T12:30:37.037Z,12.97
2019-03-28T12:33:07.309Z,14.00
2019-03-28T12:35:37.644Z,15.00
2019-03-28T12:38:08.849Z,14.13
2019-03-28T12:40:39.046Z,14.20
2019-03-28T12:43:09.570Z,14.73
2019-03-28T12:45:39.473Z,13.97
2019-03-28T12:48:10.283Z,14.20
2019-03-28T12:50:42.167Z,15.50
2019-03-28T12:53:11.961Z,16.00
2019-03-28T12:55:42.182Z,14.50
2019-03-28T12:58:13.245Z,14.93
2019-03-28T13:00:43.453Z,14.80
2019-03-28T13:03:13.749Z,13.80
2019-03-28T13:05:44.916Z,13.97
2019-03-28T13:08:15.184Z,14.37
2019-03-28T13:10:46.022Z,14.40
2019-03-28T13:13:17.710Z,13.50
2019-03-28T13:15:48.810Z,13.80
2019-03-28T13:18:18.709Z,14.37
2019-03-28T13:20:49.430Z,13.73
2019-03-28T13:23:23.500Z,14.57
2019-03-28T13:25:56.005Z,14.23
2019-03-28T13:28:28.742Z,15.03
2019-03-28T13:30:59.939Z,14.63
2019-03-28T13:33:31.281Z,14.40
2019-03-28T13:36:02.528Z,13.83
2019-03-28T13:38:32.798Z,13.97
2019-03-28T13:41:03.006Z,13.63
2019-03-28T13:43:34.145Z,16.40
2019-03-28T13:46:05.229Z,13.63
2019-03-28T13:48:36.294Z,12.60
2019-03-28T13:51:07.381Z,12.93
2019-03-28T13:53:39.705Z,12.27
2019-03-28T13:56:11.479Z,13.80
2019-03-28T13:58:41.691Z,12.47
2019-03-28T14:01:12.551Z,13.40
2019-03-28T14:03:44.173Z,12.47
2019-03-28T14:06:14.263Z,12.10
2019-03-28T14:08:45.337Z,14.03
2019-03-28T14:11:16.122Z,13.17
2019-03-28T14:13:47.636Z,13.70
2019-03-28T14:16:18.639Z,14.37
2019-03-28T14:18:50.958Z,13.80
2019-03-28T14:21:23.318Z,13.17
2019-03-28T14:23:53.069Z,13.67
2019-03-28T14:26:22.928Z,12.37
2019-03-28T14:28:54.102Z,11.73
2019-03-28T14:31:23.978Z,10.80
2019-03-28T14:33:55.523Z,11.30
2019-03-28T14:36:27.498Z,10.77
2019-03-28T14:38:58.205Z,11.63
2019-03-28T14:41:27.981Z,11.50
2019-03-28T14:43:57.781Z,12.03
2019-03-28T14:46:28.657Z,12.17
2019-03-28T14:49:01.662Z,11.60
2019-03-28T14:51:32.991Z,12.10
2019-03-28T14:54:03.239Z,12.80
2019-03-28T14:56:33.738Z,12.17
2019-03-28T14:59:04.687Z,12.17
2019-03-28T15:01:34.782Z,12.67
2019-03-28T15:04:06.012Z,13.47
2019-03-28T15:06:40.745Z,13.17
2019-03-28T15:09:10.917Z,14.30
2019-03-28T15:11:41.093Z,16.10
2019-03-28T15:14:12.230Z,14.10
2019-03-28T15:16:42.139Z,15.83
2019-03-28T15:19:11.916Z,16.47
2019-03-28T15:21:42.661Z,16.80
2019-03-28T15:24:15.050Z,15.73
2019-03-28T15:26:49.433Z,20.83
2019-03-28T15:29:21.907Z,15.83
2019-03-28T15:31:51.777Z,16.10
2019-03-28T15:34:21.456Z,17.40
2019-03-28T15:36:51.534Z,16.70
2019-03-28T15:39:21.386Z,19.80
2019-03-28T15:41:52.439Z,19.13
2019-03-28T15:44:24.553Z,22.50
2019-03-28T15:46:54.364Z,21.70
2019-03-28T15:49:27.755Z,21.33
2019-03-28T15:51:58.569Z,19.67
2019-03-28T15:54:29.449Z,20.40
2019-03-28T15:56:59.286Z,21.03
2019-03-28T15:59:30.869Z,20.23
2019-03-28T16:02:00.615Z,20.50
2019-03-28T16:04:31.634Z,18.50
2019-03-28T16:07:02.865Z,20.27
2019-03-28T16:09:34.429Z,19.97
2019-03-28T16:12:05.487Z,18.03
2019-03-28T16:14:35.722Z,18.27
2019-03-28T16:17:05.969Z,18.90
2019-03-28T16:19:37.845Z,16.77
2019-03-28T16:22:08.878Z,18.90
2019-03-28T16:24:39.810Z,19.00
2019-03-28T16:27:09.580Z,18.50
2019-03-28T16:29:41.044Z,17.93
2019-03-28T16:32:11.126Z,19.67
2019-03-28T16:34:43.386Z,19.37
2019-03-28T16:37:13.397Z,18.60
2019-03-28T16:39:43.484Z,19.03
2019-03-28T16:42:16.329Z,19.43
2019-03-28T16:44:47.773Z,16.33
2019-03-28T16:47:18.857Z,14.33
2019-03-28T16:49:49.906Z,15.20
2019-03-28T16:52:19.700Z,13.53
2019-03-28T16:54:50.621Z,14.67
2019-03-28T16:57:21.549Z,14.70
2019-03-28T16:59:51.629Z,14.00
2019-03-28T17:02:21.534Z,15.60
2019-03-28T17:04:51.713Z,15.60
2019-03-28T17:07:23.061Z,16.00
2019-03-28T17:09:56.361Z,14.73
2019-03-28T17:12:27.550Z,14.83
2019-03-28T17:14:57.385Z,15.13
2019-03-28T17:17:28.129Z,15.23
2019-03-28T17:19:59.877Z,14.40
2019-03-28T17:22:30.613Z,14.17
2019-03-28T17:25:00.401Z,14.83
2019-03-28T17:27:32.817Z,16.30
2019-03-28T17:30:02.569Z,15.90
2019-03-28T17:32:32.455Z,14.93
2019-03-28T17:35:03.811Z,14.23
2019-03-28T17:37:34.544Z,15.73
2019-03-28T17:40:06.058Z,14.63
2019-03-28T17:42:36.994Z,13.53
2019-03-28T17:45:07.955Z,12.40
2019-03-28T17:47:40.016Z,12.00
2019-03-28T17:50:11.237Z,12.53
2019-03-28T17:52:42.063Z,13.27
2019-03-28T17:55:12.709Z,16.60
2019-03-28T17:57:43.323Z,18.17
2019-03-28T18:00:15.001Z,19.63
2019-03-28T18:02:45.457Z,18.27
2019-03-28T18:05:16.072Z,18.10
2019-03-28T18:07:46.714Z,17.83
2019-03-28T18:10:18.457Z,15.43
2019-03-28T18:12:50.353Z,15.87
2019-03-28T18:15:20.108Z,16.70
2019-03-28T18:17:49.877Z,14.60
2019-03-28T18:20:20.873Z,14.93
2019-03-28T18:22:52.362Z,15.93
2019-03-28T18:25:22.880Z,15.10
2019-03-28T18:27:53.625Z,15.77
2019-03-28T18:30:25.062Z,13.27
2019-03-28T18:32:54.921Z,15.10
2019-03-28T18:35:26.812Z,16.40
2019-03-28T18:37:57.110Z,16.40
2019-03-28T18:40:28.460Z,16.50
2019-03-28T18:43:01.436Z,16.37
2019-03-28T18:45:30.218Z,17.47
2019-03-28T18:48:01.065Z,16.57
2019-03-28T18:50:33.013Z,16.30
2019-03-28T18:53:06.974Z,15.83
2019-03-28T18:55:37.884Z,21.37
2019-03-28T18:58:08.625Z,21.03
2019-03-28T19:00:38.481Z,17.87
2019-03-28T19:03:09.413Z,18.50
2019-03-28T19:05:39.707Z,20.70
2019-03-28T19:08:09.598Z,25.60
2019-03-28T19:10:40.536Z,23.00
2019-03-28T19:13:11.742Z,23.80
2019-03-28T19:15:42.041Z,24.47
2019-03-28T19:18:14.206Z,23.43
2019-03-28T19:20:45.008Z,22.00
2019-03-28T19:23:14.757Z,24.40
2019-03-28T19:25:46.991Z,24.00
2019-03-28T19:28:27.950Z,24.90
2019-03-28T19:30:49.745Z,25.93
2019-03-28T19:33:22.545Z,26.80
2019-03-28T19:35:55.277Z,27.90
2019-03-28T19:38:26.890Z,27.33
2019-03-28T19:40:58.108Z,27.53
2019-03-28T19:43:29.661Z,32.60
2019-03-28T19:46:00.762Z,31.37
2019-03-28T19:48:31.641Z,30.87
2019-03-28T19:51:02.253Z,31.17
2019-03-28T19:53:35.155Z,31.87
2019-03-28T19:56:03.725Z,32.83
2019-03-28T19:58:35.232Z,32.00
2019-03-28T20:01:07.250Z,29.27
2019-03-28T20:03:37.113Z,33.27
2019-03-28T20:06:21.305Z,33.40
2019-03-28T20:08:39.585Z,32.97
2019-03-28T20:11:10.796Z,33.97
2019-03-28T20:13:41.752Z,34.93
2019-03-28T20:16:12.912Z,32.37
2019-03-28T20:18:43.142Z,35.63
2019-03-28T20:21:13.229Z,33.57
2019-03-28T20:23:45.621Z,35.17
2019-03-28T20:26:19.742Z,35.53
2019-03-28T20:28:48.498Z,36.33
2019-03-28T20:31:19.632Z,37.30
2019-03-28T20:33:52.102Z,37.87
2019-03-28T20:36:36.933Z,37.80
2019-03-28T20:39:03.869Z,38.00
2019-03-28T20:41:27.109Z,37.13
2019-03-28T20:43:58.597Z,36.70
2019-03-28T20:46:31.981Z,37.73
2019-03-28T20:49:02.258Z,36.90
2019-03-28T20:51:34.031Z,38.73
2019-03-28T20:54:07.646Z,39.90
2019-03-28T20:56:36.520Z,39.03
2019-03-28T20:59:09.573Z,35.70
2019-03-28T21:01:42.651Z,39.80
2019-03-28T21:04:13.987Z,38.87
2019-03-28T21:06:47.158Z,39.03
2019-03-28T21:09:17.409Z,41.83
2019-03-28T21:11:48.953Z,36.77
2019-03-28T21:14:20.037Z,41.57
2019-03-28T21:16:49.737Z,41.10
2019-03-28T21:19:20.619Z,40.97
2019-03-28T21:21:50.502Z,42.23
2019-03-28T21:24:22.989Z,39.67
2019-03-28T21:26:55.728Z,39.57
2019-03-28T21:29:26.925Z,39.70
2019-03-28T21:31:59.970Z,40.20
2019-03-28T21:34:31.125Z,39.43
2019-03-28T21:37:01.943Z,39.93
2019-03-28T21:39:32.414Z,40.93
2019-03-28T21:42:07.158Z,39.97
2019-03-28T21:44:38.696Z,39.30
2019-03-28T21:47:12.745Z,40.97
2019-03-28T21:49:43.046Z,41.10
2019-03-28T21:52:14.175Z,41.27
2019-03-28T21:54:44.985Z,39.47
2019-03-28T21:57:14.847Z,40.10
2019-03-28T21:59:45.164Z,41.30
2019-03-28T22:02:15.363Z,42.70
2019-03-28T22:04:45.700Z,42.20
2019-03-28T22:07:15.561Z,41.43
2019-03-28T22:09:45.348Z,41.93
2019-03-28T22:12:15.420Z,41.87
2019-03-28T22:14:47.991Z,43.00
2019-03-28T22:17:18.095Z,42.07
2019-03-28T22:19:48.864Z,43.60
2019-03-28T22:22:19.661Z,43.23
2019-03-28T22:24:50.709Z,43.00
2019-03-28T22:27:22.134Z,42.37
2019-03-28T22:29:54.929Z,42.97
2019-03-28T22:32:25.777Z,44.33
2019-03-28T22:34:55.853Z,43.90
2019-03-28T22:37:26.987Z,43.07
2019-03-28T22:39:58.642Z,43.67
2019-03-28T22:42:28.853Z,43.43
2019-03-28T22:44:59.672Z,43.83
2019-03-28T22:47:29.874Z,44.70
2019-03-28T22:50:00.650Z,43.20
2019-03-28T22:52:31.751Z,42.80
2019-03-28T22:55:02.978Z,43.63
2019-03-28T22:57:34.365Z,42.73
2019-03-28T23:00:05.664Z,43.17
2019-03-28T23:02:36.308Z,41.53
2019-03-28T23:05:07.643Z,41.83
2019-03-28T23:07:37.921Z,44.10
2019-03-28T23:10:10.695Z,43.03
2019-03-28T23:12:41.853Z,42.90
2019-03-28T23:15:12.829Z,42.90
2019-03-28T23:17:43.634Z,42.97
2019-03-28T23:20:13.409Z,42.27
2019-03-28T23:22:44.115Z,42.83
2019-03-28T23:25:15.381Z,42.70
2019-03-28T23:27:46.213Z,41.20
2019-03-28T23:30:16.854Z,41.53
2019-03-28T23:32:48.021Z,41.87
2019-03-28T23:35:19.300Z,42.87
2019-03-28T23:37:50.102Z,43.47
2019-03-28T23:40:21.221Z,42.80
2019-03-28T23:42:51.433Z,43.33
2019-03-28T23:45:22.557Z,42.77
2019-03-28T23:47:52.469Z,43.60
2019-03-28T23:50:23.509Z,42.83
2019-03-28T23:52:53.496Z,44.23
2019-03-28T23:55:23.269Z,43.70
2019-03-28T23:57:53.580Z,43.00
